Time;durP1;ratioP1;P1;durP2;ratioP2;P2;SDS_P1;SDS_P2;PMS_P1;PMS_P2;Temp;Humidity;BMP_temperature;BMP_pressure;BME280_temperature;BME280_humidity;BME280_pressure;Samples;Min_cycle;Max_cycle;Signal;HPM_P1;HPM_P2
2021/08/08 00:01:56;;;;;;;;;;;16.50;99.90;;;;;;1912208;75;20125;-72
2021/08/08 00:04:23;;;;;;;;;;;16.50;99.90;;;;;;1917401;73;20186;-71
2021/08/08 00:06:49;;;;;;;;;;;16.50;99.90;;;;;;1913575;74;20191;-72
2021/08/08 00:09:16;;;;;;;;;;;16.50;99.90;;;;;;1920019;75;20518;-71
2021/08/08 00:11:43;;;;;;;;;;;16.60;99.90;;;;;;1921244;73;20215;-72
2021/08/08 00:14:10;;;;;;;;;;;16.70;99.90;;;;;;1866412;76;20109;-72
2021/08/08 00:16:37;;;;;;;;;;;16.70;99.90;;;;;;1920210;73;20290;-72
2021/08/08 00:19:04;;;;;;;;;;;16.60;99.90;;;;;;1921451;75;20224;-72
2021/08/08 00:21:31;;;;;;;;;;;16.50;99.90;;;;;;1918129;73;21176;-74
2021/08/08 00:23:58;;;;;;;;;;;16.40;99.90;;;;;;1916678;75;20189;-72
2021/08/08 00:26:25;;;;;;;;;;;16.50;99.90;;;;;;1915008;74;20190;-72
2021/08/08 00:28:51;;;;;;;;;;;16.40;99.90;;;;;;1919453;75;20157;-73
2021/08/08 00:31:23;;;;;;;;;;;16.40;99.90;;;;;;1921776;74;20170;-72
2021/08/08 00:33:47;;;;;;;;;;;16.40;99.90;;;;;;1921067;74;20215;-72
2021/08/08 00:36:14;;;;;;;;;;;16.40;99.90;;;;;;1918432;74;20250;-71
2021/08/08 00:38:40;;;;;;;;;;;16.60;99.90;;;;;;1921817;74;20188;-71
2021/08/08 00:41:07;;;;;;;;;;;16.60;99.90;;;;;;1913734;74;20189;-72
2021/08/08 00:43:34;;;;;;;;;;;16.50;99.90;;;;;;1915385;75;20220;-73
2021/08/08 00:46:01;;;;;;;;;;;16.40;99.90;;;;;;1917831;73;20216;-73
2021/08/08 00:48:28;;;;;;;;;;;16.50;99.90;;;;;;1875212;75;20117;-73
2021/08/08 00:50:55;;;;;;;;;;;16.50;99.90;;;;;;1863073;75;20168;-73
2021/08/08 00:53:21;;;;;;;;;;;16.60;99.90;;;;;;1857782;77;20196;-73
2021/08/08 00:55:48;;;;;;;;;;;16.70;99.90;;;;;;1841886;76;20189;-72
2021/08/08 00:58:15;;;;;;;;;;;16.70;99.90;;;;;;1837801;77;20249;-73
2021/08/08 01:00:42;;;;;;;;;;;16.70;99.90;;;;;;1852470;76;20173;-72
2021/08/08 01:03:11;;;;;;;;;;;16.60;99.90;;;;;;1842327;76;20251;-73
2021/08/08 01:05:39;;;;;;;;;;;16.60;99.90;;;;;;1866608;75;20174;-73
2021/08/08 01:08:07;;;;;;;;;;;16.70;99.90;;;;;;1869580;74;20156;-74
2021/08/08 01:10:34;;;;;;;;;;;16.60;99.90;;;;;;1840247;76;20217;-72
2021/08/08 01:13:02;;;;;;;;;;;16.60;99.90;;;;;;1840067;76;20168;-74
2021/08/08 01:15:29;;;;;;;;;;;16.60;99.90;;;;;;1846312;76;20113;-73
2021/08/08 01:17:56;;;;;;;;;;;16.70;99.90;;;;;;1863377;76;20177;-73
2021/08/08 01:20:24;;;;;;;;;;;16.60;99.90;;;;;;1876606;76;20170;-73
2021/08/08 01:22:56;;;;;;;;;;;16.60;99.90;;;;;;1855048;76;20156;-73
2021/08/08 01:25:23;;;;;;;;;;;16.50;99.90;;;;;;1877878;75;20172;-73
2021/08/08 01:27:53;;;;;;;;;;;16.60;99.90;;;;;;1867809;75;20184;-72
2021/08/08 01:30:20;;;;;;;;;;;16.60;99.90;;;;;;1863199;76;20177;-73
2021/08/08 01:32:47;;;;;;;;;;;16.50;99.90;;;;;;1890414;75;20151;-74
2021/08/08 01:35:14;;;;;;;;;;;16.40;99.90;;;;;;1886065;74;20501;-72
2021/08/08 01:37:41;;;;;;;;;;;16.30;99.90;;;;;;1896828;75;20169;-73
2021/08/08 01:40:09;;;;;;;;;;;16.30;99.90;;;;;;1873972;75;20500;-73
2021/08/08 01:42:38;;;;;;;;;;;16.30;99.90;;;;;;1866890;75;20231;-73
2021/08/08 01:45:05;;;;;;;;;;;16.20;99.90;;;;;;1861172;75;20184;-72
2021/08/08 01:47:34;;;;;;;;;;;16.30;99.90;;;;;;1874113;75;20624;-72
2021/08/08 01:50:02;;;;;;;;;;;16.30;99.90;;;;;;1882734;75;20191;-72
2021/08/08 01:52:28;;;;;;;;;;;16.20;99.90;;;;;;1891348;75;20175;-72
2021/08/08 01:54:56;;;;;;;;;;;16.30;99.90;;;;;;1875840;75;20156;-71
2021/08/08 01:57:23;;;;;;;;;;;16.30;99.90;;;;;;1875072;75;20180;-71
2021/08/08 01:59:49;;;;;;;;;;;16.10;99.90;;;;;;1875850;76;20233;-71
2021/08/08 02:02:17;;;;;;;;;;;16.20;99.90;;;;;;1875438;75;20495;-71
2021/08/08 02:04:45;;;;;;;;;;;16.10;99.90;;;;;;1875922;76;20445;-71
2021/08/08 02:07:18;;;;;;;;;;;16.10;99.90;;;;;;1881279;75;20158;-71
2021/08/08 02:09:45;;;;;;;;;;;16.20;99.90;;;;;;1876598;76;20160;-71
2021/08/08 02:12:12;;;;;;;;;;;16.30;99.90;;;;;;1868742;77;20160;-71
2021/08/08 02:14:39;;;;;;;;;;;16.20;99.90;;;;;;1869016;77;20207;-71
2021/08/08 02:17:07;;;;;;;;;;;16.10;99.90;;;;;;1869038;75;20172;-71
2021/08/08 02:19:34;;;;;;;;;;;16.10;99.90;;;;;;1869044;77;20300;-71
2021/08/08 02:22:01;;;;;;;;;;;16.20;99.90;;;;;;1868831;77;20176;-71
2021/08/08 02:24:29;;;;;;;;;;;16.10;99.90;;;;;;1869017;77;20171;-71
2021/08/08 02:26:57;;;;;;;;;;;16.10;99.90;;;;;;1868823;75;20168;-71
2021/08/08 02:29:24;;;;;;;;;;;16.10;99.90;;;;;;1867855;77;20184;-71
2021/08/08 02:31:51;;;;;;;;;;;16.20;99.90;;;;;;1869211;77;20184;-72
2021/08/08 02:34:18;;;;;;;;;;;16.20;99.90;;;;;;1869368;77;20155;-71
2021/08/08 02:36:45;;;;;;;;;;;16.20;99.90;;;;;;1869383;75;20157;-72
2021/08/08 02:39:12;;;;;;;;;;;16.20;99.90;;;;;;1869439;77;20394;-72
2021/08/08 02:41:38;;;;;;;;;;;16.20;99.90;;;;;;1869223;77;20202;-72
2021/08/08 02:44:05;;;;;;;;;;;16.30;99.90;;;;;;1869457;77;20434;-72
2021/08/08 02:46:32;;;;;;;;;;;16.20;99.90;;;;;;1869106;75;20159;-72
2021/08/08 02:48:59;;;;;;;;;;;16.10;99.90;;;;;;1869103;77;20517;-72
2021/08/08 02:51:26;;;;;;;;;;;16.00;99.90;;;;;;1868886;77;20436;-72
2021/08/08 02:53:53;;;;;;;;;;;16.10;99.90;;;;;;1868811;77;20179;-72
2021/08/08 02:56:20;;;;;;;;;;;16.10;99.90;;;;;;1868734;75;20445;-72
2021/08/08 02:58:46;;;;;;;;;;;16.10;99.90;;;;;;1869132;77;20199;-72
2021/08/08 03:01:13;;;;;;;;;;;16.10;99.90;;;;;;1870675;75;20485;-72
2021/08/08 03:03:40;;;;;;;;;;;16.10;99.90;;;;;;1893164;75;20203;-72
2021/08/08 03:06:10;;;;;;;;;;;16.20;99.90;;;;;;1878793;75;20451;-72
2021/08/08 03:08:38;;;;;;;;;;;16.20;99.90;;;;;;1878694;76;20177;-72
2021/08/08 03:11:05;;;;;;;;;;;16.10;99.90;;;;;;1878817;76;20223;-72
2021/08/08 03:13:31;;;;;;;;;;;16.10;99.90;;;;;;1921193;75;20231;-72
2021/08/08 03:15:58;;;;;;;;;;;16.20;99.90;;;;;;1921788;73;20213;-72
2021/08/08 03:18:25;;;;;;;;;;;16.20;99.90;;;;;;1921839;75;20468;-72
2021/08/08 03:20:52;;;;;;;;;;;16.10;99.90;;;;;;1921875;75;20207;-72
2021/08/08 03:23:19;;;;;;;;;;;16.20;99.90;;;;;;1921681;75;20200;-72
2021/08/08 03:25:46;;;;;;;;;;;16.30;99.90;;;;;;1921833;73;20211;-72
2021/08/08 03:28:12;;;;;;;;;;;16.40;99.90;;;;;;1923270;73;20173;-72
2021/08/08 03:30:40;;;;;;;;;;;16.30;99.90;;;;;;1949614;73;20159;-72
2021/08/08 03:33:06;;;;;;;;;;;16.40;99.90;;;;;;1930427;73;20165;-72
2021/08/08 03:35:33;;;;;;;;;;;16.30;99.90;;;;;;1875922;76;20191;-73
2021/08/08 03:38:01;;;;;;;;;;;16.30;99.90;;;;;;1876106;76;20186;-72
2021/08/08 03:40:28;;;;;;;;;;;16.30;99.90;;;;;;1868923;77;20175;-72
2021/08/08 03:42:55;;;;;;;;;;;16.40;99.90;;;;;;1869102;77;20477;-72
2021/08/08 03:45:22;;;;;;;;;;;16.20;99.90;;;;;;1868872;75;20188;-72
2021/08/08 03:47:48;;;;;;;;;;;16.30;99.90;;;;;;1869196;77;20126;-72
2021/08/08 03:50:15;;;;;;;;;;;16.30;99.90;;;;;;1869013;77;20180;-72
2021/08/08 03:52:42;;;;;;;;;;;16.30;99.90;;;;;;1869113;77;20172;-72
2021/08/08 03:55:09;;;;;;;;;;;16.30;99.90;;;;;;1869375;75;20128;-72
2021/08/08 03:57:36;;;;;;;;;;;16.40;99.90;;;;;;1869530;77;20184;-72
2021/08/08 04:00:03;;;;;;;;;;;16.40;99.90;;;;;;1869426;77;20124;-71
2021/08/08 04:02:30;;;;;;;;;;;16.30;99.90;;;;;;1869341;77;20171;-72
2021/08/08 04:04:57;;;;;;;;;;;16.40;99.90;;;;;;1869135;77;20159;-72
2021/08/08 04:07:23;;;;;;;;;;;16.50;99.90;;;;;;1866643;75;20163;-71
2021/08/08 04:09:50;;;;;;;;;;;16.40;99.90;;;;;;1868963;77;20208;-72
2021/08/08 04:12:17;;;;;;;;;;;16.40;99.90;;;;;;1869033;77;20164;-71
2021/08/08 04:14:44;;;;;;;;;;;16.40;99.90;;;;;;1868961;77;20164;-71
2021/08/08 04:17:11;;;;;;;;;;;16.30;99.90;;;;;;1868915;75;20176;-72
2021/08/08 04:19:38;;;;;;;;;;;16.10;99.90;;;;;;1869173;77;20164;-71
2021/08/08 04:22:04;;;;;;;;;;;16.20;99.90;;;;;;1869028;77;20199;-71
2021/08/08 04:24:31;;;;;;;;;;;16.20;99.90;;;;;;1868801;77;20180;-71
2021/08/08 04:26:58;;;;;;;;;;;16.20;99.90;;;;;;1869029;75;20214;-71
2021/08/08 04:29:25;;;;;;;;;;;16.30;99.90;;;;;;1868938;77;20168;-71
2021/08/08 04:31:51;;;;;;;;;;;16.30;99.90;;;;;;1868867;77;20184;-71
2021/08/08 04:34:18;;;;;;;;;;;16.20;99.90;;;;;;1868923;77;20168;-71
2021/08/08 04:36:45;;;;;;;;;;;16.20;99.90;;;;;;1869072;75;20390;-71
2021/08/08 04:39:12;;;;;;;;;;;16.20;99.90;;;;;;1868928;77;20377;-72
2021/08/08 04:41:39;;;;;;;;;;;16.30;99.90;;;;;;1868938;77;20468;-72
2021/08/08 04:44:05;;;;;;;;;;;16.20;99.90;;;;;;1868918;77;20155;-72
2021/08/08 04:46:32;;;;;;;;;;;16.30;99.90;;;;;;1868993;75;20453;-72
2021/08/08 04:48:59;;;;;;;;;;;16.20;99.90;;;;;;1868887;77;20172;-71
2021/08/08 04:51:26;;;;;;;;;;;16.20;99.90;;;;;;1869251;77;20187;-72
2021/08/08 04:53:52;;;;;;;;;;;16.10;99.90;;;;;;1869199;77;20202;-72
2021/08/08 04:56:19;;;;;;;;;;;16.00;99.90;;;;;;1869163;75;20125;-72
2021/08/08 04:58:46;;;;;;;;;;;16.10;99.90;;;;;;1869435;77;20180;-72
2021/08/08 05:01:13;;;;;;;;;;;16.00;99.90;;;;;;1869466;77;20180;-72
2021/08/08 05:03:40;;;;;;;;;;;16.00;99.90;;;;;;1869395;77;20159;-71
2021/08/08 05:06:06;;;;;;;;;;;15.90;99.90;;;;;;1869743;75;20184;-71
2021/08/08 05:08:33;;;;;;;;;;;16.00;99.90;;;;;;1869217;77;20206;-71
2021/08/08 05:11:00;;;;;;;;;;;16.10;99.90;;;;;;1869750;77;20113;-71
2021/08/08 05:13:31;;;;;;;;;;;16.10;99.90;;;;;;1869460;77;20157;-71
2021/08/08 05:15:56;;;;;;;;;;;16.10;99.90;;;;;;1868023;75;20473;-72
2021/08/08 05:18:23;;;;;;;;;;;16.10;99.90;;;;;;1869399;77;20171;-72
2021/08/08 05:20:50;;;;;;;;;;;16.10;99.90;;;;;;1869277;77;20156;-72
2021/08/08 05:23:18;;;;;;;;;;;16.20;99.90;;;;;;1868978;77;20546;-71
2021/08/08 05:25:45;;;;;;;;;;;16.10;99.90;;;;;;1868995;75;20227;-72
2021/08/08 05:28:12;;;;;;;;;;;16.10;99.90;;;;;;1864735;75;20191;-72
2021/08/08 05:30:39;;;;;;;;;;;16.10;99.90;;;;;;1862543;77;20319;-72
2021/08/08 05:33:05;;;;;;;;;;;16.10;99.90;;;;;;1875833;75;20195;-72
2021/08/08 05:35:32;;;;;;;;;;;16.20;99.90;;;;;;1869229;75;20238;-72
2021/08/08 05:37:59;;;;;;;;;;;16.20;99.90;;;;;;1869439;77;20179;-71
2021/08/08 05:40:26;;;;;;;;;;;16.20;99.90;;;;;;1872564;77;20117;-71
2021/08/08 05:42:53;;;;;;;;;;;16.20;99.90;;;;;;1872375;77;20148;-71
2021/08/08 05:45:21;;;;;;;;;;;16.20;99.90;;;;;;1872602;75;20160;-72
2021/08/08 05:47:47;;;;;;;;;;;16.20;99.90;;;;;;1872654;77;20176;-71
2021/08/08 05:50:14;;;;;;;;;;;16.30;99.90;;;;;;1872395;77;20449;-71
2021/08/08 05:52:43;;;;;;;;;;;16.20;99.90;;;;;;1871654;77;20132;-71
2021/08/08 05:55:09;;;;;;;;;;;16.00;99.90;;;;;;1871273;75;20202;-71
2021/08/08 05:57:55;;;;;;;;;;;16.00;99.90;;;;;;1871651;77;20160;-71
2021/08/08 06:00:22;;;;;;;;;;;16.10;99.90;;;;;;1899904;74;20178;-71
2021/08/08 06:02:49;;;;;;;;;;;16.10;99.90;;;;;;1896265;76;20201;-72
2021/08/08 06:05:16;;;;;;;;;;;16.30;99.90;;;;;;1896239;76;20177;-72
2021/08/08 06:07:43;;;;;;;;;;;16.20;99.90;;;;;;1900743;75;20439;-72
2021/08/08 06:10:10;;;;;;;;;;;16.10;99.90;;;;;;1897811;76;20178;-72
2021/08/08 06:12:56;;;;;;;;;;;16.20;99.90;;;;;;1896275;74;20173;-72
2021/08/08 06:15:23;;;;;;;;;;;16.20;99.90;;;;;;1944715;74;20212;-72
2021/08/08 06:17:50;;;;;;;;;;;16.30;99.90;;;;;;1922309;75;20176;-72
2021/08/08 06:20:16;;;;;;;;;;;16.20;99.90;;;;;;1922395;75;20486;-72
2021/08/08 06:22:43;;;;;;;;;;;16.20;99.90;;;;;;1922125;73;20316;-72
2021/08/08 06:25:10;;;;;;;;;;;16.10;99.90;;;;;;1884477;74;20183;-71
2021/08/08 06:27:37;;;;;;;;;;;16.20;99.90;;;;;;1884248;76;20201;-72
2021/08/08 06:30:04;;;;;;;;;;;16.20;99.90;;;;;;1915063;75;20199;-73
2021/08/08 06:32:31;;;;;;;;;;;16.20;99.90;;;;;;1918891;75;20180;-72
2021/08/08 06:34:58;;;;;;;;;;;16.30;99.90;;;;;;1918884;75;20173;-72
2021/08/08 06:37:25;;;;;;;;;;;16.40;99.90;;;;;;1919079;75;20103;-72
2021/08/08 06:39:51;;;;;;;;;;;16.50;99.90;;;;;;1918206;75;20162;-73
2021/08/08 06:42:18;;;;;;;;;;;16.40;99.90;;;;;;1884404;76;20472;-73
2021/08/08 06:44:45;;;;;;;;;;;16.40;99.90;;;;;;1885996;75;20252;-73
2021/08/08 06:47:12;;;;;;;;;;;16.40;99.90;;;;;;1871580;75;20167;-73
2021/08/08 06:49:39;;;;;;;;;;;16.50;99.90;;;;;;1871291;75;20215;-73
2021/08/08 06:52:06;;;;;;;;;;;16.40;99.90;;;;;;1871477;75;20124;-72
2021/08/08 06:54:33;;;;;;;;;;;16.40;99.90;;;;;;1873723;75;20158;-72
2021/08/08 06:57:00;;;;;;;;;;;16.40;99.90;;;;;;1908083;75;20171;-72
2021/08/08 06:59:30;;;;;;;;;;;16.40;99.90;;;;;;1884111;76;20173;-72
2021/08/08 07:01:55;;;;;;;;;;;16.40;99.90;;;;;;1887708;75;20155;-72
2021/08/08 07:04:22;;;;;;;;;;;16.40;99.90;;;;;;1887542;75;20508;-72
2021/08/08 07:06:49;;;;;;;;;;;16.40;99.90;;;;;;1887678;76;20389;-72
2021/08/08 07:09:16;;;;;;;;;;;16.30;99.90;;;;;;1899627;74;20204;-72
2021/08/08 07:11:43;;;;;;;;;;;16.30;99.90;;;;;;1925740;74;20196;-72
2021/08/08 07:14:10;;;;;;;;;;;16.30;99.90;;;;;;1923368;74;20130;-72
2021/08/08 07:16:36;;;;;;;;;;;16.30;99.90;;;;;;1922397;75;20424;-72
2021/08/08 07:19:03;;;;;;;;;;;16.30;99.90;;;;;;1922312;75;20157;-72
2021/08/08 07:21:30;;;;;;;;;;;16.30;99.90;;;;;;1922347;75;20312;-72
2021/08/08 07:23:58;;;;;;;;;;;16.40;99.90;;;;;;1922538;74;20474;-73
2021/08/08 07:26:25;;;;;;;;;;;16.40;99.90;;;;;;1967023;73;20478;-73
2021/08/08 07:28:52;;;;;;;;;;;16.40;99.90;;;;;;1967241;73;20451;-73
2021/08/08 07:31:19;;;;;;;;;;;16.40;99.90;;;;;;1963215;73;20206;-73
2021/08/08 07:33:45;;;;;;;;;;;16.40;99.90;;;;;;1967406;73;20766;-74
2021/08/08 07:36:12;;;;;;;;;;;16.30;99.90;;;;;;1967048;73;20217;-74
2021/08/08 07:38:39;;;;;;;;;;;16.30;99.90;;;;;;1967124;73;20491;-73
2021/08/08 07:41:07;;;;;;;;;;;16.30;99.90;;;;;;1934309;72;20149;-72
2021/08/08 07:43:34;;;;;;;;;;;16.30;99.90;;;;;;1932873;73;20449;-72
2021/08/08 07:46:01;;;;;;;;;;;16.30;99.90;;;;;;1943436;72;20198;-72
2021/08/08 07:48:28;;;;;;;;;;;16.30;99.90;;;;;;1931179;73;20125;-72
2021/08/08 07:50:54;;;;;;;;;;;16.40;99.90;;;;;;1953766;72;20170;-73
2021/08/08 07:53:21;;;;;;;;;;;16.50;99.90;;;;;;1961522;72;20198;-73
2021/08/08 07:55:53;;;;;;;;;;;16.40;99.90;;;;;;1963781;72;20174;-73
2021/08/08 07:58:17;;;;;;;;;;;16.40;99.90;;;;;;1959671;73;20225;-73
2021/08/08 08:00:44;;;;;;;;;;;16.40;99.90;;;;;;1964208;72;20169;-72
2021/08/08 08:03:11;;;;;;;;;;;16.40;99.90;;;;;;1960333;73;20198;-72
2021/08/08 08:05:38;;;;;;;;;;;16.40;99.90;;;;;;1961162;72;20236;-72
2021/08/08 08:08:05;;;;;;;;;;;16.50;99.90;;;;;;1960215;72;20190;-73
2021/08/08 08:10:33;;;;;;;;;;;16.50;99.90;;;;;;1965518;72;20122;-73
2021/08/08 08:13:01;;;;;;;;;;;16.40;99.90;;;;;;1967115;73;20471;-72
2021/08/08 08:15:28;;;;;;;;;;;16.60;99.90;;;;;;1962986;72;20221;-72
2021/08/08 08:17:55;;;;;;;;;;;16.60;99.90;;;;;;1967604;72;20130;-73
2021/08/08 08:20:22;;;;;;;;;;;16.70;99.90;;;;;;1965679;72;20166;-72
2021/08/08 08:22:49;;;;;;;;;;;16.80;99.90;;;;;;1966550;72;20186;-73
2021/08/08 08:25:17;;;;;;;;;;;16.70;99.90;;;;;;1964910;72;20159;-73
2021/08/08 08:27:44;;;;;;;;;;;16.70;99.90;;;;;;1964632;73;20123;-75
2021/08/08 08:30:11;;;;;;;;;;;16.70;99.90;;;;;;1962643;72;20166;-74
2021/08/08 08:32:38;;;;;;;;;;;16.70;99.90;;;;;;1961323;72;20218;-75
2021/08/08 08:35:05;;;;;;;;;;;16.70;99.90;;;;;;1963945;72;20172;-74
2021/08/08 08:37:32;;;;;;;;;;;16.70;99.90;;;;;;1936492;72;20180;-73
2021/08/08 08:39:59;;;;;;;;;;;16.80;99.90;;;;;;1943183;72;20394;-74
2021/08/08 08:42:30;;;;;;;;;;;16.80;99.90;;;;;;1956758;72;20484;-73
2021/08/08 08:44:57;;;;;;;;;;;16.80;99.90;;;;;;1962455;72;20170;-73
2021/08/08 08:47:24;;;;;;;;;;;16.80;99.90;;;;;;1960153;72;20170;-73
2021/08/08 08:49:56;;;;;;;;;;;16.80;99.90;;;;;;1960066;72;20150;-78
2021/08/08 08:52:23;;;;;;;;;;;16.90;99.90;;;;;;1961843;73;20174;-74
2021/08/08 08:54:50;;;;;;;;;;;16.90;99.90;;;;;;1954672;72;20581;-75
2021/08/08 08:57:17;;;;;;;;;;;16.90;99.90;;;;;;1959532;72;20427;-76
2021/08/08 08:59:44;;;;;;;;;;;16.90;99.90;;;;;;1964447;72;20186;-75
2021/08/08 09:02:11;;;;;;;;;;;16.90;99.90;;;;;;1960604;72;20139;-75
2021/08/08 09:04:38;;;;;;;;;;;16.90;99.90;;;;;;1964439;72;20217;-76
2021/08/08 09:07:05;;;;;;;;;;;16.90;99.90;;;;;;1942906;72;20440;-75
2021/08/08 09:09:33;;;;;;;;;;;17.00;99.90;;;;;;1965417;72;20174;-76
2021/08/08 09:11:59;;;;;;;;;;;17.00;99.90;;;;;;1965223;72;20170;-77
2021/08/08 09:14:26;;;;;;;;;;;17.10;99.90;;;;;;1949617;72;20647;-76
2021/08/08 09:16:54;;;;;;;;;;;17.10;99.90;;;;;;1962694;72;20186;-77
2021/08/08 09:19:23;;;;;;;;;;;17.20;99.90;;;;;;1967269;72;20149;-78
2021/08/08 09:21:50;;;;;;;;;;;17.40;99.90;;;;;;1960950;72;20220;-77
2021/08/08 09:24:24;;;;;;;;;;;17.50;99.90;;;;;;1960562;72;20192;-78
2021/08/08 09:26:53;;;;;;;;;;;17.60;99.90;;;;;;1962025;72;20154;-77
2021/08/08 09:29:20;;;;;;;;;;;17.60;99.90;;;;;;1945078;72;20129;-78
2021/08/08 09:31:48;;;;;;;;;;;17.70;99.90;;;;;;1961980;72;20217;-77
2021/08/08 09:34:22;;;;;;;;;;;17.70;99.90;;;;;;1962335;72;20534;-79
2021/08/08 09:36:50;;;;;;;;;;;17.80;99.90;;;;;;1946361;72;20194;-79
2021/08/08 09:39:27;;;;;;;;;;;17.80;99.90;;;;;;1964510;72;20217;-77
2021/08/08 09:42:10;;;;;;;;;;;17.90;99.90;;;;;;1965426;72;20172;-79
2021/08/08 09:44:38;;;;;;;;;;;17.90;99.90;;;;;;1956563;73;20215;-76
2021/08/08 09:47:06;;;;;;;;;;;17.90;99.90;;;;;;1961675;73;20206;-76
2021/08/08 09:49:32;;;;;;;;;;;17.80;99.90;;;;;;1964942;72;20210;-79
2021/08/08 09:51:59;;;;;;;;;;;17.90;99.90;;;;;;1961367;72;20129;-76
2021/08/08 09:54:27;;;;;;;;;;;17.80;99.90;;;;;;1967365;73;20130;-78
2021/08/08 09:56:58;;;;;;;;;;;17.90;99.90;;;;;;1966180;72;20186;-77
2021/08/08 09:59:25;;;;;;;;;;;18.10;99.90;;;;;;1951292;72;20152;-81
2021/08/08 10:01:52;;;;;;;;;;;18.00;99.90;;;;;;1946693;73;20488;-78
2021/08/08 10:04:19;;;;;;;;;;;18.10;99.90;;;;;;1961333;73;20127;-76
2021/08/08 10:06:46;;;;;;;;;;;18.40;99.90;;;;;;1961673;72;20138;-77
2021/08/08 10:09:13;;;;;;;;;;;18.60;99.90;;;;;;1959625;73;20475;-75
2021/08/08 10:11:43;;;;;;;;;;;18.70;99.90;;;;;;1959176;73;20362;-75
2021/08/08 10:14:11;;;;;;;;;;;18.70;99.90;;;;;;1958418;73;20746;-77
2021/08/08 10:16:40;;;;;;;;;;;18.70;99.90;;;;;;1961785;73;20182;-76
2021/08/08 10:19:08;;;;;;;;;;;18.60;99.90;;;;;;1958064;73;20178;-76
2021/08/08 10:21:38;;;;;;;;;;;18.80;99.90;;;;;;1957364;73;20199;-76
2021/08/08 10:24:09;;;;;;;;;;;18.90;99.90;;;;;;1926493;73;20137;-76
2021/08/08 10:26:34;;;;;;;;;;;19.00;99.90;;;;;;1924186;74;20196;-76
2021/08/08 10:29:01;;;;;;;;;;;19.00;99.90;;;;;;1925778;74;20211;-76
2021/08/08 10:31:29;;;;;;;;;;;19.00;99.90;;;;;;1928441;73;20196;-76
2021/08/08 10:33:58;;;;;;;;;;;19.00;99.90;;;;;;1931299;74;20399;-77
2021/08/08 10:36:26;;;;;;;;;;;18.90;99.90;;;;;;1941954;73;20104;-76
2021/08/08 10:38:54;;;;;;;;;;;18.90;99.90;;;;;;1967327;73;20585;-76
2021/08/08 10:41:21;;;;;;;;;;;18.80;99.90;;;;;;1967403;72;20396;-76
2021/08/08 10:43:48;;;;;;;;;;;18.70;99.90;;;;;;1967146;73;20200;-77
2021/08/08 10:46:16;;;;;;;;;;;18.80;99.90;;;;;;1967146;72;20159;-77
2021/08/08 10:48:43;;;;;;;;;;;18.90;99.90;;;;;;1946858;73;20145;-77
2021/08/08 10:51:21;;;;;;;;;;;19.10;99.90;;;;;;1931095;74;20180;-77
2021/08/08 10:54:04;;;;;;;;;;;19.30;99.90;;;;;;1930385;73;20189;-77
2021/08/08 10:56:45;;;;;;;;;;;19.10;99.90;;;;;;1966885;73;20613;-77
2021/08/08 10:59:13;;;;;;;;;;;18.80;99.90;;;;;;1967275;73;20201;-76
2021/08/08 11:01:40;;;;;;;;;;;18.90;99.90;;;;;;1935936;73;20219;-76
2021/08/08 11:04:07;;;;;;;;;;;18.80;99.90;;;;;;1930917;74;20180;-76
2021/08/08 11:06:35;;;;;;;;;;;18.80;99.90;;;;;;1930965;73;20176;-76
2021/08/08 11:09:03;;;;;;;;;;;18.90;99.90;;;;;;1936617;73;20491;-76
2021/08/08 11:11:34;;;;;;;;;;;18.80;99.90;;;;;;1951076;73;20193;-75
2021/08/08 11:14:08;;;;;;;;;;;18.80;99.90;;;;;;1954468;72;20232;-76
2021/08/08 11:16:35;;;;;;;;;;;18.90;99.90;;;;;;1929090;73;20169;-76
2021/08/08 11:19:02;;;;;;;;;;;19.00;99.90;;;;;;1951762;73;20184;-76
2021/08/08 11:21:29;;;;;;;;;;;19.20;99.90;;;;;;1925821;74;20177;-76
2021/08/08 11:23:56;;;;;;;;;;;19.40;99.90;;;;;;1925834;74;20177;-76
2021/08/08 11:26:23;;;;;;;;;;;19.50;99.90;;;;;;1925489;74;20224;-76
2021/08/08 11:28:54;;;;;;;;;;;19.40;99.90;;;;;;1925771;74;20489;-76
2021/08/08 11:31:22;;;;;;;;;;;19.30;99.90;;;;;;1932348;73;20172;-76
2021/08/08 11:33:53;;;;;;;;;;;19.20;99.90;;;;;;1943220;73;20204;-76
2021/08/08 11:36:22;;;;;;;;;;;19.20;99.90;;;;;;1925017;74;20235;-76
2021/08/08 11:38:56;;;;;;;;;;;19.20;99.90;;;;;;1922384;74;20192;-76
2021/08/08 11:41:23;;;;;;;;;;;19.10;99.90;;;;;;1925651;74;20185;-76
2021/08/08 11:43:52;;;;;;;;;;;19.10;99.90;;;;;;1925657;73;20331;-76
2021/08/08 11:46:20;;;;;;;;;;;19.10;99.90;;;;;;1923492;74;20200;-76
2021/08/08 11:48:47;;;;;;;;;;;19.10;99.90;;;;;;1930351;73;20168;-76
2021/08/08 11:51:15;;;;;;;;;;;19.10;99.90;;;;;;1940612;73;20293;-76
2021/08/08 11:53:42;;;;;;;;;;;19.10;99.90;;;;;;1924582;74;20164;-76
2021/08/08 11:56:19;;;;;;;;;;;19.20;99.90;;;;;;1925489;74;20161;-76
2021/08/08 11:58:47;;;;;;;;;;;19.30;99.90;;;;;;1950114;73;20141;-76
2021/08/08 12:01:16;;;;;;;;;;;19.30;99.90;;;;;;1966874;73;20119;-75
2021/08/08 12:03:42;;;;;;;;;;;19.40;99.90;;;;;;1961703;73;20483;-76
2021/08/08 12:06:10;;;;;;;;;;;19.50;99.90;;;;;;1931042;74;20320;-76
2021/08/08 12:08:37;;;;;;;;;;;19.40;99.90;;;;;;1931023;74;20218;-76
2021/08/08 12:11:04;;;;;;;;;;;19.50;99.90;;;;;;1955170;73;20126;-76
2021/08/08 12:13:31;;;;;;;;;;;19.50;99.90;;;;;;1967114;73;20162;-76
2021/08/08 12:15:57;;;;;;;;;;;19.40;99.90;;;;;;1967256;73;20170;-76
2021/08/08 12:18:28;;;;;;;;;;;19.40;99.90;;;;;;1967364;73;20557;-76
2021/08/08 12:20:55;;;;;;;;;;;19.40;99.90;;;;;;1951441;73;20176;-76
2021/08/08 12:23:26;;;;;;;;;;;19.50;99.90;;;;;;1931292;74;20148;-76
2021/08/08 12:26:00;;;;;;;;;;;19.50;99.90;;;;;;1957333;73;20186;-76
2021/08/08 12:28:27;;;;;;;;;;;19.50;99.90;;;;;;1957592;73;20162;-76
2021/08/08 12:31:07;;;;;;;;;;;19.50;99.90;;;;;;1957872;73;20108;-76
2021/08/08 12:33:34;;;;;;;;;;;19.60;99.90;;;;;;1935274;73;20944;-76
2021/08/08 12:36:11;;;;;;;;;;;19.60;99.90;;;;;;1925911;74;20238;-76
2021/08/08 12:38:51;;;;;;;;;;;19.70;99.90;;;;;;1957824;73;20440;-76
2021/08/08 12:41:31;;;;;;;;;;;19.80;99.90;;;;;;1964031;73;20174;-76
2021/08/08 12:43:59;;;;;;;;;;;19.80;99.90;;;;;;1965268;73;20154;-76
2021/08/08 12:46:33;;;;;;;;;;;19.80;99.90;;;;;;1967102;73;20174;-76
2021/08/08 12:49:01;;;;;;;;;;;19.80;99.90;;;;;;1967231;73;20200;-76
2021/08/08 12:51:28;;;;;;;;;;;20.00;99.90;;;;;;1967283;73;20174;-76
2021/08/08 12:53:55;;;;;;;;;;;20.10;99.90;;;;;;1959084;73;20156;-76
2021/08/08 12:56:22;;;;;;;;;;;20.20;99.90;;;;;;1959944;73;20198;-76
2021/08/08 12:58:50;;;;;;;;;;;20.10;99.90;;;;;;1966979;73;20170;-76
2021/08/08 13:01:21;;;;;;;;;;;20.00;99.90;;;;;;1967684;73;20170;-77
2021/08/08 13:03:48;;;;;;;;;;;20.10;99.90;;;;;;1967045;73;20101;-78
2021/08/08 13:06:15;;;;;;;;;;;20.30;99.90;;;;;;1967634;72;20205;-79
2021/08/08 13:08:42;;;;;;;;;;;20.50;99.90;;;;;;1967936;73;20201;-79
2021/08/08 13:11:08;;;;;;;;;;;20.60;99.90;;;;;;1965061;72;20490;-78
2021/08/08 13:13:35;;;;;;;;;;;20.70;99.90;;;;;;1967586;73;20161;-79
2021/08/08 13:16:02;;;;;;;;;;;20.80;99.90;;;;;;1963770;72;20225;-79
2021/08/08 13:18:29;;;;;;;;;;;20.60;99.90;;;;;;1958624;73;20214;-78
2021/08/08 13:20:58;;;;;;;;;;;20.50;99.90;;;;;;1958753;73;20205;-78
2021/08/08 13:23:25;;;;;;;;;;;20.50;99.90;;;;;;1958204;73;20190;-77
2021/08/08 13:25:51;;;;;;;;;;;20.40;99.90;;;;;;1958731;73;20190;-79
2021/08/08 13:28:18;;;;;;;;;;;20.50;99.90;;;;;;1942775;73;20200;-77
2021/08/08 13:30:45;;;;;;;;;;;20.50;99.90;;;;;;1929605;74;20228;-78
2021/08/08 13:33:12;;;;;;;;;;;20.40;99.90;;;;;;1961761;72;20168;-78
2021/08/08 13:35:38;;;;;;;;;;;20.30;99.90;;;;;;1997154;72;20140;-78
2021/08/08 13:38:05;;;;;;;;;;;20.20;99.90;;;;;;1997144;72;20452;-78
2021/08/08 13:40:32;;;;;;;;;;;20.30;99.90;;;;;;1996624;72;20375;-74
2021/08/08 13:43:00;;;;;;;;;;;20.30;99.90;;;;;;1945784;72;20130;-77
2021/08/08 13:45:28;;;;;;;;;;;20.30;99.90;;;;;;1962516;73;20201;-76
2021/08/08 13:47:54;;;;;;;;;;;20.30;99.90;;;;;;1969428;73;20166;-77
2021/08/08 13:50:21;;;;;;;;;;;20.40;99.90;;;;;;1969427;73;20142;-77
2021/08/08 13:52:48;;;;;;;;;;;20.50;99.90;;;;;;1969633;73;20296;-77
2021/08/08 13:55:19;;;;;;;;;;;20.50;99.90;;;;;;1967508;73;20154;-78
2021/08/08 13:57:44;;;;;;;;;;;20.70;99.90;;;;;;1943622;72;20120;-78
2021/08/08 14:00:11;;;;;;;;;;;20.80;99.90;;;;;;1931760;74;20210;-78
2021/08/08 14:02:39;;;;;;;;;;;20.90;99.90;;;;;;1940321;72;20127;-77
2021/08/08 14:05:11;;;;;;;;;;;20.90;99.90;;;;;;1925771;74;20157;-78
2021/08/08 14:07:37;;;;;;;;;;;20.90;99.90;;;;;;1924215;74;20171;-78
2021/08/08 14:10:05;;;;;;;;;;;20.90;99.90;;;;;;1916258;74;20316;-77
2021/08/08 14:12:31;;;;;;;;;;;20.90;99.90;;;;;;1911426;75;20169;-78
2021/08/08 14:14:58;;;;;;;;;;;20.90;99.90;;;;;;1911088;74;20197;-77
2021/08/08 14:17:25;;;;;;;;;;;21.00;99.90;;;;;;1896803;75;20177;-77
2021/08/08 14:19:52;;;;;;;;;;;21.00;99.90;;;;;;1899450;75;20196;-78